Time;durP1;ratioP1;P1;durP2;ratioP2;P2;SDS_P1;SDS_P2;PMS_P1;PMS_P2;Temp;Humidity;BMP_temperature;BMP_pressure;BME280_temperature;BME280_humidity;BME280_pressure;Samples;Min_cycle;Max_cycle;Signal;HPM_P1;HPM_P2
2023/01/28 00:01:51;;;;;;;7.78;5.85;;;5.10;99.90;;;;;;4980885;28;20034;-90
2023/01/28 00:04:17;;;;;;;7.72;6.00;;;5.10;99.90;;;;;;4981086;28;20034;-91
2023/01/28 00:06:43;;;;;;;8.23;6.10;;;5.10;99.90;;;;;;4981003;28;20064;-91
2023/01/28 00:09:09;;;;;;;7.43;5.47;;;5.10;99.90;;;;;;4997216;28;20034;-91
2023/01/28 00:11:35;;;;;;;7.40;5.65;;;5.10;99.90;;;;;;4980834;28;20034;-92
2023/01/28 00:14:00;;;;;;;9.48;6.13;;;5.10;99.90;;;;;;4981217;28;20390;-92
2023/01/28 00:16:26;;;;;;;7.45;5.65;;;5.10;99.90;;;;;;4980983;28;20045;-90
2023/01/28 00:19:19;;;;;;;9.68;6.10;;;5.10;99.90;;;;;;4981247;28;20053;-90
2023/01/28 00:21:55;;;;;;;7.25;5.47;;;5.10;99.90;;;;;;4983271;28;20054;-90
2023/01/28 00:24:21;;;;;;;7.68;5.45;;;5.10;99.90;;;;;;4997700;28;20034;-90
2023/01/28 00:26:46;;;;;;;7.85;5.70;;;5.10;99.90;;;;;;5001962;28;20041;-90
2023/01/28 00:29:12;;;;;;;9.32;5.68;;;5.10;99.90;;;;;;5009768;28;20038;-94
2023/01/28 00:31:39;;;;;;;7.90;6.15;;;5.10;99.90;;;;;;4994409;28;20038;-93
2023/01/28 00:34:05;;;;;;;7.38;5.90;;;5.10;99.90;;;;;;4991747;28;20398;-93
2023/01/28 00:36:31;;;;;;;8.07;6.03;;;5.10;99.90;;;;;;4981534;28;20039;-94
2023/01/28 00:38:58;;;;;;;9.00;6.68;;;5.10;99.90;;;;;;4965387;28;20545;-94
2023/01/28 00:41:27;;;;;;;8.13;5.88;;;5.10;99.90;;;;;;4965370;28;20030;-90
2023/01/28 00:43:53;;;;;;;8.88;6.43;;;5.00;99.90;;;;;;4981188;28;20034;-90
2023/01/28 00:46:21;;;;;;;7.53;5.80;;;5.10;99.90;;;;;;4965275;28;20037;-90
2023/01/28 00:48:47;;;;;;;8.38;5.93;;;5.10;99.90;;;;;;4981157;28;20549;-90
2023/01/28 00:51:16;;;;;;;7.55;5.60;;;5.00;99.90;;;;;;4981270;28;20030;-89
2023/01/28 00:53:42;;;;;;;7.72;5.72;;;5.00;99.90;;;;;;4981093;28;20538;-90
2023/01/28 00:56:12;;;;;;;7.55;5.50;;;5.00;99.90;;;;;;4981275;28;20065;-90
2023/01/28 00:58:38;;;;;;;9.80;6.35;;;5.10;99.90;;;;;;4998408;28;20026;-91
2023/01/28 01:01:08;;;;;;;8.38;5.85;;;5.00;99.90;;;;;;4964837;28;20039;-93
2023/01/28 01:03:33;;;;;;;7.85;5.88;;;5.00;99.90;;;;;;4965140;28;20042;-92
2023/01/28 01:05:59;;;;;;;7.97;6.03;;;5.00;99.90;;;;;;4948822;28;20498;-92
2023/01/28 01:08:33;;;;;;;7.70;5.53;;;5.00;99.90;;;;;;4949372;28;20456;-92
2023/01/28 01:11:03;;;;;;;10.88;6.80;;;5.10;99.90;;;;;;4966301;28;20054;-92
2023/01/28 01:13:30;;;;;;;8.10;5.93;;;5.00;99.90;;;;;;4980948;28;20115;-92
2023/01/28 01:16:08;;;;;;;9.77;6.38;;;5.00;99.90;;;;;;4964918;28;20042;-92
2023/01/28 01:18:35;;;;;;;8.80;6.70;;;5.00;99.90;;;;;;4980719;28;20031;-93
2023/01/28 01:21:01;;;;;;;8.35;6.05;;;5.00;99.90;;;;;;4980836;28;20034;-92
2023/01/28 01:23:29;;;;;;;9.07;6.65;;;5.00;99.90;;;;;;4980818;28;20042;-93
2023/01/28 01:25:55;;;;;;;10.65;7.05;;;5.00;99.90;;;;;;4980870;28;20026;-92
2023/01/28 01:28:24;;;;;;;9.27;6.78;;;5.00;99.90;;;;;;4980501;28;20475;-91
2023/01/28 01:30:49;;;;;;;9.65;6.95;;;5.00;99.90;;;;;;4980469;28;20184;-91
2023/01/28 01:33:16;;;;;;;9.95;6.97;;;5.00;99.90;;;;;;4980625;28;20097;-90
2023/01/28 01:35:42;;;;;;;9.25;6.75;;;5.00;99.90;;;;;;5016281;28;20026;-94
2023/01/28 01:38:08;;;;;;;10.98;7.38;;;5.00;99.90;;;;;;5015008;28;20069;-94
2023/01/28 01:40:33;;;;;;;10.15;7.32;;;5.00;99.90;;;;;;5015930;28;20037;-94
2023/01/28 01:42:59;;;;;;;11.00;7.18;;;5.00;99.90;;;;;;5015958;28;20068;-94
2023/01/28 01:45:27;;;;;;;10.65;7.30;;;5.00;99.90;;;;;;5015941;28;20045;-94
2023/01/28 01:48:11;;;;;;;9.85;6.85;;;5.00;99.90;;;;;;5016040;28;20378;-94
2023/01/28 01:50:51;;;;;;;9.30;6.68;;;5.00;99.90;;;;;;5016147;28;20092;-91
2023/01/28 01:53:23;;;;;;;7.82;5.65;;;5.00;99.90;;;;;;5016063;28;20030;-90
2023/01/28 01:55:52;;;;;;;8.85;6.40;;;5.00;99.90;;;;;;5015980;28;20038;-90
2023/01/28 01:58:24;;;;;;;8.88;6.70;;;5.00;99.90;;;;;;4999554;28;20061;-90
2023/01/28 02:00:50;;;;;;;10.25;7.10;;;4.90;99.90;;;;;;5015977;28;20034;-91
2023/01/28 02:03:35;;;;;;;9.10;6.57;;;4.90;99.90;;;;;;4983426;28;20385;-90
2023/01/28 02:06:02;;;;;;;9.02;6.47;;;4.90;99.90;;;;;;5015890;28;20061;-90
2023/01/28 02:08:28;;;;;;;9.77;6.20;;;4.90;99.90;;;;;;4999564;28;20553;-94
2023/01/28 02:11:15;;;;;;;9.55;6.70;;;4.90;99.90;;;;;;4999282;28;20062;-94
2023/01/28 02:13:46;;;;;;;9.05;6.35;;;4.90;99.90;;;;;;5015538;28;20422;-93
2023/01/28 02:16:12;;;;;;;;;;;4.90;99.90;;;;;;5034621;28;20042;-91
2023/01/28 02:18:38;;;;;;;8.60;6.07;;;4.90;99.90;;;;;;5021981;28;19968;-90
2023/01/28 02:21:31;;;;;;;8.70;6.55;;;4.80;99.90;;;;;;5005397;28;20045;-90
2023/01/28 02:24:30;;;;;;;8.27;5.70;;;4.80;99.90;;;;;;5039014;28;20045;-91
2023/01/28 02:27:15;;;;;;;8.88;6.20;;;4.80;99.90;;;;;;5015289;28;20040;-94
2023/01/28 02:29:59;;;;;;;8.32;5.93;;;4.80;99.90;;;;;;5015133;28;20053;-94
2023/01/28 02:32:35;;;;;;;8.60;6.40;;;4.80;99.90;;;;;;5013285;28;20181;-94
2023/01/28 02:35:10;;;;;;;10.40;6.43;;;4.80;99.90;;;;;;4998799;28;20117;-95
2023/01/28 02:37:52;;;;;;;8.63;6.05;;;4.80;99.90;;;;;;4998854;28;20124;-93
2023/01/28 02:41:00;;;;;;;8.60;5.82;;;4.80;99.90;;;;;;4998318;28;20045;-94
2023/01/28 02:43:42;;;;;;;8.77;6.15;;;4.80;99.90;;;;;;5038921;28;20014;-89
2023/01/28 02:49:05;;;;;;;9.85;6.00;;;4.80;99.90;;;;;;5038858;28;20037;-90
2023/01/28 02:52:03;;;;;;;9.55;6.90;;;4.80;99.90;;;;;;5023111;28;20029;-90
2023/01/28 02:54:36;;;;;;;10.80;7.35;;;4.70;99.90;;;;;;5014588;28;20029;-89
2023/01/28 02:57:16;;;;;;;11.10;7.38;;;4.70;99.90;;;;;;5023337;28;20014;-88
2023/01/28 03:00:22;;;;;;;11.63;7.93;;;4.70;99.90;;;;;;4999084;28;20092;-90
2023/01/28 03:02:58;;;;;;;12.23;8.68;;;4.70;99.90;;;;;;4950667;28;20038;-90
2023/01/28 03:05:39;;;;;;;11.13;7.90;;;4.70;99.90;;;;;;4998218;28;20064;-91
2023/01/28 03:09:21;;;;;;;;;;;4.70;99.90;;;;;;4998528;28;20041;-90
2023/01/28 03:36:52;;;;;;;13.68;9.55;;;4.60;99.90;;;;;;5000909;28;20103;-92
2023/01/28 03:39:22;;;;;;;13.23;9.00;;;4.60;99.90;;;;;;4983178;28;20041;-93
2023/01/28 03:42:04;;;;;;;11.80;8.32;;;4.60;99.90;;;;;;4982210;28;20037;-93
2023/01/28 03:44:49;;;;;;;11.93;8.68;;;4.60;99.90;;;;;;4997796;28;20052;-93
2023/01/28 03:47:15;;;;;;;11.82;8.52;;;4.60;99.90;;;;;;4984461;28;20041;-92
2023/01/28 03:49:47;;;;;;;11.95;8.60;;;4.60;99.90;;;;;;4997737;28;20069;-90
2023/01/28 03:52:15;;;;;;;13.20;8.38;;;4.60;99.90;;;;;;4982083;28;20036;-90
2023/01/28 03:54:41;;;;;;;12.30;8.50;;;4.60;99.90;;;;;;4996915;28;20044;-90
2023/01/28 03:57:06;;;;;;;15.75;9.82;;;4.60;99.90;;;;;;4981055;28;20038;-90
2023/01/28 03:59:33;;;;;;;11.82;8.48;;;4.60;99.90;;;;;;4964548;28;20066;-90
2023/01/28 04:01:59;;;;;;;13.57;9.02;;;4.60;99.90;;;;;;4997431;28;20477;-90
2023/01/28 04:04:25;;;;;;;12.88;9.18;;;4.60;99.90;;;;;;5014606;28;20095;-90
2023/01/28 04:06:52;;;;;;;13.02;9.40;;;4.60;99.90;;;;;;4981482;28;20026;-90
2023/01/28 04:09:17;;;;;;;12.77;8.70;;;4.60;99.90;;;;;;4997546;28;20037;-91
2023/01/28 04:11:43;;;;;;;12.25;8.60;;;4.60;99.90;;;;;;4981148;28;20030;-90
2023/01/28 04:14:09;;;;;;;12.48;8.85;;;4.50;99.90;;;;;;4981417;28;20392;-90
2023/01/28 04:16:35;;;;;;;12.60;8.88;;;4.50;99.90;;;;;;4997241;28;20030;-90
2023/01/28 04:19:01;;;;;;;12.35;8.57;;;4.60;99.90;;;;;;4981159;28;20026;-91
2023/01/28 04:21:26;;;;;;;12.60;8.88;;;4.50;99.90;;;;;;4997041;28;20061;-93
2023/01/28 04:23:52;;;;;;;13.27;9.50;;;4.50;99.90;;;;;;4965829;28;20051;-92
2023/01/28 04:26:18;;;;;;;12.85;9.18;;;4.50;99.90;;;;;;4964710;28;20104;-93
2023/01/28 04:28:43;;;;;;;11.98;8.65;;;4.50;99.90;;;;;;4964797;28;20450;-91
2023/01/28 04:31:09;;;;;;;11.05;8.18;;;4.50;99.90;;;;;;4980771;28;20557;-90
2023/01/28 04:33:35;;;;;;;10.93;7.93;;;4.50;99.90;;;;;;4980568;28;20069;-90
2023/01/28 04:36:00;;;;;;;11.25;8.55;;;4.50;99.90;;;;;;4997018;28;20037;-90
2023/01/28 04:38:26;;;;;;;11.75;8.63;;;4.50;99.90;;;;;;4980814;28;20037;-93
2023/01/28 04:40:53;;;;;;;10.90;7.85;;;4.40;99.90;;;;;;4980467;28;20112;-93
2023/01/28 04:43:19;;;;;;;11.00;8.02;;;4.40;99.90;;;;;;4997020;28;20139;-93
2023/01/28 04:45:46;;;;;;;10.85;7.95;;;4.40;99.90;;;;;;4980676;28;20153;-93
2023/01/28 04:48:13;;;;;;;13.63;8.93;;;4.40;99.90;;;;;;4996815;28;20033;-93
2023/01/28 04:50:39;;;;;;;11.27;8.32;;;4.50;99.90;;;;;;4981734;28;20041;-93
2023/01/28 04:53:07;;;;;;;10.95;8.15;;;4.40;99.90;;;;;;4964737;28;20038;-93
2023/01/28 04:55:33;;;;;;;10.88;8.13;;;4.40;99.90;;;;;;4997166;28;20034;-90
2023/01/28 04:58:02;;;;;;;10.18;7.63;;;4.40;99.90;;;;;;4997292;28;20125;-90
2023/01/28 05:00:28;;;;;;;11.10;7.95;;;4.40;99.90;;;;;;4981724;28;20033;-91
2023/01/28 05:02:53;;;;;;;10.68;8.27;;;4.40;99.90;;;;;;4980954;28;20049;-91
2023/01/28 05:05:19;;;;;;;11.18;7.60;;;4.40;99.90;;;;;;4964435;28;20069;-90
2023/01/28 05:07:51;;;;;;;11.07;8.25;;;4.40;99.90;;;;;;4980842;28;20034;-90
2023/01/28 05:10:18;;;;;;;10.85;7.72;;;4.40;99.90;;;;;;4981757;28;20487;-90
2023/01/28 05:12:45;;;;;;;11.02;8.13;;;4.40;99.90;;;;;;4968306;28;20092;-93
2023/01/28 05:15:11;;;;;;;11.63;8.27;;;4.30;99.90;;;;;;4984536;28;20041;-93
2023/01/28 05:17:36;;;;;;;11.95;8.23;;;4.30;99.90;;;;;;5000363;28;20038;-90
2023/01/28 05:20:03;;;;;;;10.75;8.30;;;4.30;99.90;;;;;;5000760;28;20034;-90
2023/01/28 05:22:29;;;;;;;10.82;8.32;;;4.30;99.90;;;;;;4984114;28;20034;-90
2023/01/28 05:24:55;;;;;;;12.88;8.32;;;4.30;99.90;;;;;;5000467;28;20052;-91
2023/01/28 05:27:20;;;;;;;10.90;7.90;;;4.30;99.90;;;;;;4968049;28;20040;-91
2023/01/28 05:29:46;;;;;;;13.80;9.50;;;4.30;99.90;;;;;;4969428;28;20084;-94
2023/01/28 05:32:12;;;;;;;13.07;8.38;;;4.30;99.90;;;;;;4968340;28;20034;-92
2023/01/28 05:34:38;;;;;;;11.02;8.00;;;4.30;99.90;;;;;;4983895;28;20071;-93
2023/01/28 05:37:03;;;;;;;11.77;8.15;;;4.30;99.90;;;;;;4984118;28;20049;-93
2023/01/28 05:39:30;;;;;;;10.57;7.95;;;4.30;99.90;;;;;;4984219;28;20054;-93
2023/01/28 05:41:55;;;;;;;11.57;8.23;;;4.30;99.90;;;;;;4968023;28;20046;-92
2023/01/28 05:44:21;;;;;;;11.65;8.15;;;4.20;99.90;;;;;;4967807;28;20521;-91
2023/01/28 05:46:47;;;;;;;13.18;8.65;;;4.20;99.90;;;;;;4967753;28;20467;-90
2023/01/28 05:49:13;;;;;;;11.40;7.90;;;4.20;99.90;;;;;;4999660;28;20088;-91
2023/01/28 05:51:39;;;;;;;13.02;8.93;;;4.20;99.90;;;;;;4983418;28;20050;-91
2023/01/28 05:54:05;;;;;;;12.25;8.35;;;4.20;99.90;;;;;;4983555;28;20041;-91
2023/01/28 05:56:32;;;;;;;11.52;7.85;;;4.20;99.90;;;;;;4983410;28;20034;-90
2023/01/28 05:58:58;;;;;;;12.18;8.95;;;4.20;99.90;;;;;;4967370;28;20117;-91
2023/01/28 06:01:23;;;;;;;11.77;7.93;;;4.20;99.90;;;;;;4999484;28;20106;-91
2023/01/28 06:03:49;;;;;;;11.70;8.35;;;4.20;99.90;;;;;;4983081;28;20049;-90
2023/01/28 06:06:15;;;;;;;12.23;7.78;;;4.10;99.90;;;;;;4967244;28;20045;-90
2023/01/28 06:08:41;;;;;;;13.45;8.25;;;4.20;99.90;;;;;;4982861;28;20388;-90
2023/01/28 06:11:06;;;;;;;12.80;8.07;;;4.10;99.90;;;;;;4983057;28;20068;-90
2023/01/28 06:13:32;;;;;;;11.27;7.95;;;4.10;99.90;;;;;;4983167;28;20411;-90
2023/01/28 06:15:58;;;;;;;12.40;8.38;;;4.10;99.90;;;;;;4966909;28;20030;-91
2023/01/28 06:18:24;;;;;;;13.18;8.93;;;4.10;99.90;;;;;;5021912;28;20041;-90
2023/01/28 06:20:50;;;;;;;12.60;8.80;;;4.10;99.90;;;;;;5001629;28;20038;-90
2023/01/28 06:23:21;;;;;;;13.73;9.38;;;4.10;99.90;;;;;;5006746;28;20030;-90
2023/01/28 06:25:51;;;;;;;12.45;8.20;;;4.10;99.90;;;;;;4969758;28;20062;-90
2023/01/28 06:28:17;;;;;;;14.60;8.43;;;4.10;99.90;;;;;;5006901;28;20049;-90
2023/01/28 06:30:43;;;;;;;12.52;8.80;;;4.00;99.90;;;;;;4987242;28;20335;-91
2023/01/28 06:33:09;;;;;;;12.73;8.63;;;4.00;99.90;;;;;;4989635;28;20045;-90
2023/01/28 06:35:35;;;;;;;12.35;8.32;;;4.00;99.90;;;;;;4985929;28;20042;-91
2023/01/28 06:38:03;;;;;;;13.25;8.93;;;4.00;99.90;;;;;;4983087;28;20026;-91
2023/01/28 06:40:28;;;;;;;13.93;9.27;;;4.00;99.90;;;;;;4998403;28;20030;-91
2023/01/28 06:42:54;;;;;;;13.15;8.75;;;4.00;99.90;;;;;;4966391;28;20104;-90
2023/01/28 06:45:20;;;;;;;13.98;8.38;;;4.00;99.90;;;;;;4998695;28;20084;-90
2023/01/28 06:47:50;;;;;;;14.45;9.13;;;4.00;99.90;;;;;;4967129;28;20042;-90
2023/01/28 06:50:16;;;;;;;13.23;8.90;;;4.00;99.90;;;;;;4983986;28;20376;-90
2023/01/28 06:52:47;;;;;;;13.70;8.98;;;4.00;99.90;;;;;;4982627;28;20049;-94
2023/01/28 06:55:13;;;;;;;14.73;9.32;;;4.00;99.90;;;;;;4984466;28;20471;-93
2023/01/28 06:57:44;;;;;;;12.95;8.82;;;3.90;99.90;;;;;;4966168;28;20065;-94
2023/01/28 07:00:12;;;;;;;12.18;8.45;;;4.00;99.90;;;;;;4998515;28;20479;-94
2023/01/28 07:02:43;;;;;;;13.95;8.88;;;3.90;99.90;;;;;;4998427;28;20060;-93
2023/01/28 07:05:09;;;;;;;12.38;8.30;;;3.90;99.90;;;;;;4982491;28;20049;-94
2023/01/28 07:07:53;;;;;;;13.43;9.10;;;3.90;99.90;;;;;;4999019;28;20434;-90
2023/01/28 07:10:18;;;;;;;14.15;9.38;;;3.90;99.90;;;;;;4998158;28;20112;-90
2023/01/28 07:12:47;;;;;;;13.68;9.32;;;3.90;99.90;;;;;;4982074;28;20112;-90
2023/01/28 07:15:14;;;;;;;12.95;9.30;;;3.90;99.90;;;;;;4982045;28;20092;-90
2023/01/28 07:17:50;;;;;;;14.15;8.70;;;3.90;99.90;;;;;;4998205;28;20037;-91
2023/01/28 07:20:17;;;;;;;15.63;9.55;;;3.90;99.90;;;;;;4997918;28;20033;-91
2023/01/28 07:22:44;;;;;;;14.68;9.85;;;3.80;99.90;;;;;;4981770;28;20041;-91
2023/01/28 07:25:11;;;;;;;13.25;9.55;;;3.80;99.90;;;;;;4997777;28;20040;-94
2023/01/28 07:27:43;;;;;;;14.90;10.45;;;3.90;99.90;;;;;;4997647;28;20022;-91
2023/01/28 07:30:09;;;;;;;14.52;9.93;;;3.80;99.90;;;;;;4967193;28;20121;-90
2023/01/28 07:32:34;;;;;;;13.00;9.80;;;3.80;99.90;;;;;;4997483;28;20109;-90
2023/01/28 07:35:00;;;;;;;13.93;9.75;;;3.80;99.90;;;;;;5013076;28;20145;-93
2023/01/28 07:37:26;;;;;;;15.23;10.65;;;3.80;99.90;;;;;;4998134;28;20075;-93
2023/01/28 07:39:52;;;;;;;15.45;10.27;;;3.80;99.90;;;;;;4965497;28;20065;-94
2023/01/28 07:42:17;;;;;;;15.23;10.35;;;3.80;99.90;;;;;;4981509;28;20526;-90
2023/01/28 07:44:43;;;;;;;12.48;9.25;;;3.80;99.90;;;;;;4997436;28;20080;-90
2023/01/28 07:47:09;;;;;;;15.10;10.05;;;3.80;99.90;;;;;;5013820;28;20038;-91
2023/01/28 07:49:35;;;;;;;16.67;10.70;;;3.80;99.90;;;;;;4981095;28;20157;-90
2023/01/28 07:52:01;;;;;;;12.93;9.23;;;3.80;99.90;;;;;;5014963;28;20133;-91
2023/01/28 07:54:26;;;;;;;13.68;10.13;;;3.80;99.90;;;;;;4997320;28;20033;-90
2023/01/28 07:56:52;;;;;;;14.93;10.20;;;3.80;99.90;;;;;;4965273;28;20041;-91
2023/01/28 07:59:18;;;;;;;13.60;10.60;;;3.80;99.90;;;;;;4964832;28;20038;-90
2023/01/28 08:01:43;;;;;;;14.35;9.60;;;3.80;99.90;;;;;;4997563;28;20098;-90
2023/01/28 08:04:09;;;;;;;13.43;9.88;;;3.70;99.90;;;;;;4997079;28;20097;-90
2023/01/28 08:06:36;;;;;;;13.93;10.05;;;3.80;99.90;;;;;;5013643;28;20100;-90
2023/01/28 08:09:04;;;;;;;15.02;10.10;;;3.80;99.90;;;;;;4981425;28;20085;-90
2023/01/28 08:11:31;;;;;;;14.48;10.30;;;3.80;99.90;;;;;;4997723;28;20042;-90
2023/01/28 08:13:57;;;;;;;15.05;10.45;;;3.80;99.90;;;;;;4965324;28;20030;-90
2023/01/28 08:16:23;;;;;;;15.68;10.95;;;3.70;99.90;;;;;;4981074;28;20475;-94
2023/01/28 08:18:48;;;;;;;14.70;10.07;;;3.80;99.90;;;;;;4964891;28;20061;-94
2023/01/28 08:21:14;;;;;;;14.43;10.38;;;3.70;99.90;;;;;;4997340;28;20049;-93
2023/01/28 08:23:40;;;;;;;14.82;10.70;;;3.80;99.90;;;;;;4965239;28;20042;-94
2023/01/28 08:26:05;;;;;;;15.25;10.60;;;3.80;99.90;;;;;;4997738;28;20113;-94
2023/01/28 08:28:31;;;;;;;15.65;11.07;;;3.80;99.90;;;;;;4964887;28;20038;-94
2023/01/28 08:30:59;;;;;;;14.95;10.60;;;3.80;99.90;;;;;;4982703;28;20049;-95
2023/01/28 08:33:25;;;;;;;14.50;10.23;;;3.80;99.90;;;;;;5014953;28;20231;-93
2023/01/28 08:35:51;;;;;;;13.05;9.43;;;3.80;99.90;;;;;;5011022;28;20125;-94
2023/01/28 08:38:18;;;;;;;14.63;10.77;;;3.80;99.90;;;;;;5009041;28;20402;-94
2023/01/28 08:40:44;;;;;;;15.40;11.05;;;3.80;99.90;;;;;;4973012;28;20138;-95
2023/01/28 08:43:10;;;;;;;13.45;9.82;;;3.80;99.90;;;;;;4978275;28;20084;-94
2023/01/28 08:45:39;;;;;;;15.52;10.32;;;3.80;99.90;;;;;;5023674;28;20037;-93
2023/01/28 08:48:09;;;;;;;12.95;9.13;;;3.80;99.90;;;;;;5008652;28;20018;-93
2023/01/28 08:50:36;;;;;;;13.57;9.20;;;3.80;99.90;;;;;;5001187;28;20062;-94
2023/01/28 08:53:13;;;;;;;12.98;9.35;;;3.80;99.90;;;;;;4985518;28;20169;-94
2023/01/28 08:55:39;;;;;;;12.63;9.02;;;3.80;99.90;;;;;;4985431;28;20042;-94
2023/01/28 08:58:08;;;;;;;12.90;8.75;;;3.70;99.90;;;;;;5017011;28;20459;-94
2023/01/28 09:00:34;;;;;;;11.30;8.60;;;3.70;99.90;;;;;;5004994;28;20026;-90
2023/01/28 09:03:00;;;;;;;14.23;9.27;;;3.70;99.90;;;;;;5004133;28;20386;-94
2023/01/28 09:05:25;;;;;;;12.13;9.45;;;3.70;99.90;;;;;;5029785;28;20037;-90
2023/01/28 09:07:51;;;;;;;12.73;9.32;;;3.70;99.90;;;;;;4992075;28;20030;-89
2023/01/28 09:10:19;;;;;;;11.35;8.75;;;3.70;99.90;;;;;;4999765;28;20075;-90
2023/01/28 09:12:45;;;;;;;12.70;8.85;;;3.70;99.90;;;;;;4985563;28;20042;-91
2023/01/28 09:15:11;;;;;;;12.63;9.05;;;3.70;99.90;;;;;;4967227;28;20042;-90
2023/01/28 09:17:36;;;;;;;12.45;8.57;;;3.70;99.90;;;;;;4966248;28;20045;-91
2023/01/28 09:20:23;;;;;;;12.88;8.48;;;3.80;99.90;;;;;;4965560;28;20050;-91
2023/01/28 09:22:49;;;;;;;11.70;8.63;;;3.80;99.90;;;;;;4965735;28;20042;-93
2023/01/28 09:25:15;;;;;;;11.80;8.43;;;3.70;99.90;;;;;;4965977;28;20049;-94
2023/01/28 09:27:40;;;;;;;13.02;9.63;;;3.80;99.90;;;;;;4950309;28;20057;-94
2023/01/28 09:30:27;;;;;;;10.88;8.43;;;3.80;99.90;;;;;;4966803;28;20031;-91
2023/01/28 09:32:54;;;;;;;10.13;7.72;;;3.80;99.90;;;;;;4982525;28;20117;-92
2023/01/28 09:35:21;;;;;;;10.90;8.55;;;3.70;99.90;;;;;;4966887;28;20046;-91
2023/01/28 09:37:47;;;;;;;11.82;8.75;;;3.70;99.90;;;;;;4965517;28;20038;-91
2023/01/28 09:40:20;;;;;;;11.15;8.45;;;3.80;99.90;;;;;;4981158;28;20034;-91
2023/01/28 09:43:24;;;;;;;11.45;8.68;;;3.80;99.90;;;;;;4981744;28;20034;-92
2023/01/28 09:45:54;;;;;;;11.30;8.32;;;3.80;99.90;;;;;;4981412;28;20038;-92
2023/01/28 09:48:24;;;;;;;11.40;7.90;;;3.80;99.90;;;;;;4981541;28;20030;-92
2023/01/28 09:50:53;;;;;;;11.63;8.75;;;3.80;99.90;;;;;;4981798;28;20517;-90
2023/01/28 09:53:29;;;;;;;12.20;9.00;;;3.80;99.90;;;;;;4981484;28;20101;-91
2023/01/28 09:55:56;;;;;;;13.43;8.63;;;3.80;99.90;;;;;;4982439;28;20034;-92
2023/01/28 09:58:21;;;;;;;11.32;8.60;;;3.80;99.90;;;;;;4981872;28;20149;-92
2023/01/28 10:00:57;;;;;;;11.25;8.38;;;3.80;99.90;;;;;;5001662;28;20056;-95
2023/01/28 10:03:28;;;;;;;11.55;8.07;;;3.80;99.90;;;;;;5000651;28;20072;-95
2023/01/28 10:06:25;;;;;;;10.88;7.93;;;3.90;99.90;;;;;;5000619;28;20066;-94
2023/01/28 10:09:17;;;;;;;11.43;8.32;;;3.90;99.90;;;;;;5000465;28;20154;-91
2023/01/28 10:12:04;;;;;;;10.63;7.95;;;3.90;99.90;;;;;;5000630;28;20117;-92
2023/01/28 10:14:53;;;;;;;12.48;8.70;;;3.90;99.90;;;;;;5001280;28;20042;-93
2023/01/28 10:17:26;;;;;;;11.68;8.73;;;4.00;99.90;;;;;;4993037;28;20053;-91
2023/01/28 10:20:14;;;;;;;11.50;8.82;;;4.00;99.90;;;;;;4999778;28;20030;-90
2023/01/28 10:23:05;;;;;;;12.00;8.30;;;4.00;99.90;;;;;;5000081;28;20096;-91
2023/01/28 10:25:33;;;;;;;10.63;8.23;;;4.00;99.90;;;;;;5000779;28;20061;-92
2023/01/28 10:34:46;;;;;;;10.88;8.15;;;4.10;99.90;;;;;;5016437;28;20056;-89
2023/01/28 10:37:14;;;;;;;11.80;8.35;;;4.10;99.90;;;;;;4983314;28;20045;-89
2023/01/28 10:39:40;;;;;;;10.88;8.32;;;4.10;99.90;;;;;;4966180;28;20054;-90
2023/01/28 10:42:31;;;;;;;11.23;8.35;;;4.10;99.90;;;;;;4980080;28;20038;-89
2023/01/28 10:45:02;;;;;;;10.47;7.97;;;4.20;99.90;;;;;;4974543;28;20376;-88
2023/01/28 10:48:01;;;;;;;11.27;7.97;;;4.20;99.90;;;;;;4979785;28;20053;-88
2023/01/28 10:50:28;;;;;;;10.38;7.82;;;4.20;99.90;;;;;;4979311;28;20030;-89
2023/01/28 10:53:03;;;;;;;10.98;7.88;;;4.20;99.90;;;;;;4979288;28;20062;-88
2023/01/28 10:55:51;;;;;;;13.05;8.00;;;4.30;99.90;;;;;;4979165;28;20111;-88
2023/01/28 10:58:23;;;;;;;11.15;7.90;;;4.30;99.90;;;;;;4982922;28;20037;-89
2023/01/28 11:00:55;;;;;;;10.88;7.68;;;4.30;99.90;;;;;;4998403;28;20030;-92
2023/01/28 11:03:29;;;;;;;10.20;7.40;;;4.30;99.90;;;;;;4998698;28;20034;-93
2023/01/28 11:05:57;;;;;;;10.45;7.15;;;4.40;99.90;;;;;;4967777;28;20047;-92
2023/01/28 11:08:29;;;;;;;10.90;7.90;;;4.40;99.90;;;;;;4999045;28;20041;-93
2023/01/28 11:10:56;;;;;;;10.40;7.85;;;4.40;99.90;;;;;;4967269;28;20034;-90
2023/01/28 11:13:29;;;;;;;9.75;7.35;;;4.40;99.90;;;;;;4998130;28;20030;-91
2023/01/28 11:16:26;;;;;;;10.18;7.82;;;4.40;99.90;;;;;;4998406;28;20038;-92
2023/01/28 11:18:53;;;;;;;10.25;7.50;;;4.40;99.90;;;;;;4998466;28;20030;-89
2023/01/28 11:21:28;;;;;;;11.15;7.57;;;4.40;99.90;;;;;;4998431;28;20042;-90
2023/01/28 11:24:01;;;;;;;9.60;7.30;;;4.40;99.90;;;;;;4998531;28;20037;-92
2023/01/28 11:26:48;;;;;;;11.48;7.70;;;4.50;99.90;;;;;;4998203;28;20034;-91
2023/01/28 11:29:41;;;;;;;9.45;7.47;;;4.50;99.90;;;;;;4997818;28;20026;-93
2023/01/28 11:32:24;;;;;;;9.98;7.20;;;4.50;99.90;;;;;;4997788;28;20072;-92
2023/01/28 11:34:56;;;;;;;10.40;7.97;;;4.60;99.90;;;;;;4997692;28;20084;-90
2023/01/28 11:37:25;;;;;;;10.98;7.55;;;4.60;99.90;;;;;;4997864;28;20081;-91
2023/01/28 11:40:19;;;;;;;10.40;8.35;;;4.60;99.90;;;;;;4997819;28;20026;-93
2023/01/28 11:42:51;;;;;;;10.43;7.55;;;4.60;99.90;;;;;;4998395;28;20108;-93
2023/01/28 11:45:21;;;;;;;12.48;7.70;;;4.60;99.90;;;;;;4981355;28;20139;-94
2023/01/28 11:48:09;;;;;;;11.60;8.15;;;4.70;99.90;;;;;;4997589;28;20025;-92
2023/01/28 11:50:46;;;;;;;12.63;8.02;;;4.80;99.90;;;;;;4997796;28;20133;-91
2023/01/28 11:53:26;;;;;;;9.35;7.25;;;4.80;99.90;;;;;;5015421;28;20554;-90
2023/01/28 11:56:19;;;;;;;11.00;7.78;;;4.90;99.90;;;;;;4997983;28;20415;-90
2023/01/28 11:59:07;;;;;;;13.88;9.75;;;5.00;99.90;;;;;;4997529;28;20033;-89
2023/01/28 12:02:10;;;;;;;12.10;8.13;;;5.00;99.90;;;;;;4997651;28;20040;-89
2023/01/28 12:05:23;;;;;;;11.25;8.13;;;5.10;99.90;;;;;;4996996;28;20042;-90
2023/01/28 12:08:22;;;;;;;9.88;7.43;;;5.10;99.90;;;;;;4938743;29;20044;-91
2023/01/28 12:14:28;;;;;;;10.13;7.65;;;5.20;99.90;;;;;;4956908;29;20046;-92
2023/01/28 12:17:07;;;;;;;10.15;7.57;;;5.30;99.90;;;;;;5018103;28;20041;-92
2023/01/28 12:19:51;;;;;;;11.35;7.95;;;5.30;99.90;;;;;;5017019;28;20041;-92
2023/01/28 12:22:43;;;;;;;10.80;8.48;;;5.40;99.90;;;;;;5013703;28;20054;-92
2023/01/28 12:25:08;;;;;;;10.05;7.53;;;5.50;99.90;;;;;;5008976;28;20113;-91
2023/01/28 12:28:11;;;;;;;10.75;7.72;;;5.50;99.90;;;;;;5002382;28;20084;-91
2023/01/28 12:31:12;;;;;;;10.65;7.85;;;5.70;99.90;;;;;;5004553;28;20037;-91
2023/01/28 12:34:02;;;;;;;11.18;7.90;;;5.70;99.90;;;;;;4982027;28;20034;-90
2023/01/28 12:36:52;;;;;;;13.77;8.63;;;5.80;99.90;;;;;;4998902;28;20050;-92
2023/01/28 12:39:44;;;;;;;13.32;8.93;;;5.80;99.90;;;;;;4999004;28;20065;-91
2023/01/28 12:42:15;;;;;;;;;;;5.80;99.90;;;;;;4999692;28;20030;-89
2023/01/28 12:44:53;;;;;;;;;;;5.80;99.90;;;;;;4997977;28;19917;-90
2023/01/28 12:48:08;;;;;;;10.60;7.82;;;5.90;99.90;;;;;;4997884;28;19906;-89
2023/01/28 12:50:45;;;;;;;11.85;7.78;;;6.00;99.90;;;;;;4993772;28;20065;-91
2023/01/28 12:53:28;;;;;;;11.10;8.20;;;6.00;99.90;;;;;;5015225;28;20483;-90
2023/01/28 12:56:07;;;;;;;10.75;8.00;;;6.10;99.90;;;;;;4996778;28;20034;-90
2023/01/28 12:58:42;;;;;;;10.98;7.70;;;6.20;99.90;;;;;;4997107;28;20030;-90
2023/01/28 13:01:13;;;;;;;9.77;7.88;;;6.20;99.90;;;;;;4997772;28;20034;-91
2023/01/28 13:03:48;;;;;;;11.82;8.30;;;6.20;99.90;;;;;;4998509;28;20026;-91
2023/01/28 13:06:23;;;;;;;10.13;7.22;;;6.20;99.90;;;;;;4999093;28;20034;-90
2023/01/28 13:08:51;;;;;;;9.80;6.72;;;6.20;99.90;;;;;;5017552;28;20030;-90
2023/01/28 13:11:18;;;;;;;12.70;8.50;;;6.20;99.90;;;;;;4999452;28;20049;-90
2023/01/28 13:13:45;;;;;;;11.43;8.60;;;6.20;99.90;;;;;;4981921;28;20034;-90
2023/01/28 13:16:12;;;;;;;12.30;8.40;;;6.20;99.90;;;;;;4980978;28;20041;-94
2023/01/28 13:18:44;;;;;;;9.93;7.60;;;6.20;99.90;;;;;;4980842;28;20038;-93
2023/01/28 13:21:25;;;;;;;10.13;7.53;;;6.10;99.90;;;;;;4997010;28;20038;-93
2023/01/28 13:24:03;;;;;;;9.90;7.32;;;6.10;99.90;;;;;;4997489;28;20041;-93
2023/01/28 13:26:45;;;;;;;11.20;7.95;;;6.00;99.90;;;;;;4997637;28;20050;-92
2023/01/28 13:29:13;;;;;;;13.35;8.13;;;6.00;99.90;;;;;;4997141;28;20038;-92
2023/01/28 13:31:46;;;;;;;10.52;7.72;;;6.00;99.90;;;;;;4998048;28;20057;-92
2023/01/28 13:34:35;;;;;;;12.80;7.93;;;6.00;99.90;;;;;;5002390;28;20058;-92
2023/01/28 13:37:28;;;;;;;10.50;7.70;;;6.00;99.90;;;;;;5000417;28;20041;-92
2023/01/28 13:40:12;;;;;;;11.90;7.47;;;6.00;99.90;;;;;;5001071;28;20037;-93
2023/01/28 13:42:43;;;;;;;10.20;7.35;;;6.10;99.90;;;;;;4999972;28;20037;-92
2023/01/28 13:45:14;;;;;;;11.43;7.53;;;6.20;99.90;;;;;;4983405;28;20050;-92
2023/01/28 13:48:04;;;;;;;11.52;7.28;;;6.20;99.90;;;;;;5000045;28;20029;-90
2023/01/28 13:50:40;;;;;;;10.88;7.85;;;6.30;99.90;;;;;;5000093;28;20041;-90
2023/01/28 13:53:34;;;;;;;10.20;7.68;;;6.30;99.90;;;;;;5000205;28;20494;-90
2023/01/28 13:56:06;;;;;;;10.60;7.85;;;6.30;99.90;;;;;;4999662;28;20475;-89